KCCO

Newnan Coweta County Airport

Atlanta, Georgia, USA
METAR KCCO 161015Z AUTO 00000KT 10SM CLR M02/M05 A3024 RMK AO2 T10211050
Observed Flight Rules
Dec-16 @ 10:15 UTC (37 minutes ago) Visual Flight Rules
Wind Visibility Clouds
Calm 10 miles
  • Clear skies
Temperatures Readings
Current -2°C / 28°F
Dewpoint -5°C / 23°F
Humidity 80%
Altimeter 30.24" Hg
Pressure 1024 hPa
Elevation 296
METAR KCCO 161015Z AUTO 00000KT 10SM CLR M02/M05 A3024 RMK AO2 T10211050
Observed Flight Rules
Dec-16 @ 10:15 UTC
(37 minutes ago)
VFR
Wind Visibility
Calm 10 miles
Clouds
  • Clear skies
Temperature Dewpoint
-2°C / 28°F -5°C / 23°F
Humidity Altimeter Pressure
80% 30.24" Hg 1024 hPa